aviador You're here:

KDVP Decoded Metar

SLAYTON in MN, USA
Report Time2017-08-22 22:11:00
UTC Time2017-08-22 22:22:51
Flight Rules vfr VFR
Wind320° at 14 Gusting to 17 kt
W.Decomp.*RWY 35: 11.6 kt HW 7.8 kt LCW
W.Rank320° ranks 6
Current wind is above 320° avg. (11.7)
Visibility9999 m
Phenomena:N/A
Clouds:N/A
Expected CloudBase > 6,000 ft AGL from Temp-Dew spread
CeilingNone
Temp22°C (ISA +10)
Dew Point07°C (38% RH)
AAT16.3°C
QNH1021 hPa
Density Alt2,684 ft
Elevation1,624 ft
Report Wrong Elevation
Raw Report
METAR KDVP 222211Z AUTO 32014G17KT 10SM CLR 22/07 A3015 RMK AO2 T02180066=

Extra information for KDVP:More info

Metar Taf Metar & Taf Last 4 Metars F.Rules Stats Wind Profile Meteogram Temp Stats Airport Information Weather charts Add Link Nearby VenuesMetar ALERT Operation Metar Decoded Social comments

AIRNAV info for KDVP